METAR Data
IDs: Format: Raw Decoded Include TAF

Data at: 2036 UTC 23 Oct 2021

ESMS 232020Z 27004KT CAVOK 04/02 Q1026